Time;durP1;ratioP1;P1;durP2;ratioP2;P2;SDS_P1;SDS_P2;PMS_P1;PMS_P2;Temp;Humidity;BMP_temperature;BMP_pressure;BME280_temperature;BME280_humidity;BME280_pressure;Samples;Min_cycle;Max_cycle;Signal;HPM_P1;HPM_P2
2022/06/12 00:00:45;;;;;;;;;;;22.90;92.50;;;;;;5072401;28;19959;-70
2022/06/12 00:03:12;;;;;;;;;;;22.90;93.10;;;;;;5071943;28;19951;-71
2022/06/12 00:05:39;;;;;;;;;;;22.80;93.40;;;;;;5072287;28;19961;-71
2022/06/12 00:08:05;;;;;;;;;;;22.80;93.70;;;;;;5071939;28;19923;-71
2022/06/12 00:10:32;;;;;;;;;;;22.70;94.10;;;;;;5071841;28;19913;-70
2022/06/12 00:12:57;;;;;;;;;;;22.70;94.50;;;;;;5071876;28;19912;-72
2022/06/12 00:15:24;;;;;;;;;;;22.60;95.10;;;;;;5072175;28;20392;-72
2022/06/12 00:17:50;;;;;;;;;;;22.50;96.00;;;;;;5071830;28;20011;-71
2022/06/12 00:20:16;;;;;;;;;;;22.40;96.50;;;;;;5072036;28;19920;-72
2022/06/12 00:22:43;;;;;;;;;;;22.30;97.50;;;;;;5070250;28;19913;-70
2022/06/12 00:25:09;;;;;;;;;;;22.30;98.50;;;;;;5070047;28;20399;-70
2022/06/12 00:27:35;;;;;;;;;;;22.30;99.30;;;;;;5071627;28;19947;-70
2022/06/12 00:30:01;;;;;;;;;;;22.30;99.80;;;;;;5071802;28;19920;-70
2022/06/12 00:32:28;;;;;;;;;;;22.20;99.90;;;;;;5071655;28;19917;-72
2022/06/12 00:34:54;;;;;;;;;;;22.10;99.90;;;;;;5071775;28;19924;-70
2022/06/12 00:37:21;;;;;;;;;;;22.00;99.90;;;;;;5071672;28;19916;-70
2022/06/12 00:39:48;;;;;;;;;;;21.90;99.90;;;;;;5071772;28;19995;-70
2022/06/12 00:42:25;;;;;;;;;;;21.90;99.90;;;;;;5071655;28;19946;-70
2022/06/12 00:44:51;;;;;;;;;;;21.80;99.90;;;;;;5071680;28;19916;-70
2022/06/12 00:47:16;;;;;;;;;;;21.80;99.90;;;;;;5071522;28;19913;-71
2022/06/12 00:50:03;;;;;;;;;;;21.70;99.90;;;;;;5071444;28;19916;-71
2022/06/12 00:52:45;;;;;;;;;;;21.70;99.90;;;;;;5071025;28;19916;-71
2022/06/12 00:55:18;;;;;;;;;;;21.60;99.90;;;;;;5070081;28;19960;-71
2022/06/12 00:57:44;;;;;;;;;;;21.50;99.90;;;;;;5071422;28;19923;-71
2022/06/12 01:00:14;;;;;;;;;;;21.50;99.90;;;;;;5071666;28;19919;-71
2022/06/12 01:02:40;;;;;;;;;;;21.40;99.90;;;;;;5071406;28;20007;-71
2022/06/12 01:07:53;;;;;;;;;;;21.40;99.90;;;;;;5075434;28;19924;-71
2022/06/12 01:10:20;;;;;;;;;;;21.30;99.90;;;;;;5075713;28;19924;-72
2022/06/12 01:12:49;;;;;;;;;;;21.30;99.90;;;;;;5075319;28;19943;-70
2022/06/12 01:15:20;;;;;;;;;;;21.30;99.90;;;;;;5074032;28;19984;-71
2022/06/12 01:17:46;;;;;;;;;;;21.20;99.90;;;;;;5075285;28;20379;-70
2022/06/12 01:20:14;;;;;;;;;;;21.20;99.90;;;;;;5073904;28;19956;-71
2022/06/12 01:22:39;;;;;;;;;;;21.20;99.90;;;;;;5073837;28;20414;-70
2022/06/12 01:25:13;;;;;;;;;;;21.20;99.90;;;;;;5074994;28;19920;-70
2022/06/12 01:28:03;;;;;;;;;;;21.10;99.90;;;;;;5074633;28;20292;-71
2022/06/12 01:30:47;;;;;;;;;;;21.10;99.90;;;;;;5075331;28;20372;-71
2022/06/12 01:33:25;;;;;;;;;;;21.10;99.90;;;;;;5073570;28;19977;-71
2022/06/12 01:35:50;;;;;;;;;;;21.00;99.90;;;;;;5073465;28;19924;-72
2022/06/12 01:38:20;;;;;;;;;;;21.00;99.90;;;;;;5074904;28;19909;-71
2022/06/12 01:40:45;;;;;;;;;;;20.90;99.90;;;;;;5075119;28;20311;-72
2022/06/12 01:43:22;;;;;;;;;;;20.90;99.90;;;;;;5073446;28;19920;-72
2022/06/12 01:46:01;;;;;;;;;;;20.90;99.90;;;;;;5074588;28;19921;-71
2022/06/12 01:48:37;;;;;;;;;;;20.80;99.90;;;;;;5074648;28;20000;-72
2022/06/12 01:51:14;;;;;;;;;;;20.80;99.90;;;;;;5074505;28;19947;-71
2022/06/12 01:53:43;;;;;;;;;;;20.80;99.90;;;;;;5074563;28;19909;-72
2022/06/12 01:56:15;;;;;;;;;;;20.70;99.90;;;;;;5074537;28;19923;-71
2022/06/12 01:58:45;;;;;;;;;;;20.70;99.90;;;;;;5074525;28;20011;-71
2022/06/12 02:01:17;;;;;;;;;;;20.60;99.90;;;;;;5073017;28;19939;-71
2022/06/12 02:03:50;;;;;;;;;;;20.70;99.90;;;;;;5074388;28;19916;-71
2022/06/12 02:06:20;;;;;;;;;;;20.70;99.90;;;;;;5074272;28;20003;-71
2022/06/12 02:08:49;;;;;;;;;;;20.60;99.90;;;;;;5074346;28;19908;-70
2022/06/12 02:14:07;;;;;;;;;;;20.60;99.90;;;;;;5074536;28;19965;-72
2022/06/12 02:16:37;;;;;;;;;;;20.60;99.90;;;;;;5073881;28;20002;-72
2022/06/12 02:19:07;;;;;;;;;;;20.60;99.90;;;;;;5074294;28;19919;-71
2022/06/12 02:21:47;;;;;;;;;;;20.60;99.90;;;;;;5074026;28;19924;-74
2022/06/12 02:24:13;;;;;;;;;;;20.60;99.90;;;;;;5074121;28;19920;-71
2022/06/12 02:26:45;;;;;;;;;;;20.60;99.90;;;;;;5072452;28;19917;-70
2022/06/12 02:29:18;;;;;;;;;;;20.60;99.90;;;;;;5073176;28;21396;-69
2022/06/12 02:31:46;;;;;;;;;;;20.60;99.90;;;;;;5073840;28;20281;-72
2022/06/12 02:34:15;;;;;;;;;;;20.60;99.90;;;;;;5073884;28;20011;-71
2022/06/12 02:36:46;;;;;;;;;;;20.60;99.90;;;;;;5073762;28;19967;-71
2022/06/12 02:39:15;;;;;;;;;;;20.50;99.90;;;;;;5073940;28;19913;-70
2022/06/12 02:41:44;;;;;;;;;;;20.60;99.90;;;;;;5073817;28;19923;-70
2022/06/12 02:44:13;;;;;;;;;;;20.60;99.90;;;;;;5073809;28;19917;-70
2022/06/12 02:46:39;;;;;;;;;;;20.60;99.90;;;;;;5073784;28;19920;-70
2022/06/12 02:49:06;;;;;;;;;;;20.60;99.90;;;;;;5073674;28;19920;-71
2022/06/12 02:51:36;;;;;;;;;;;20.60;99.90;;;;;;5073414;28;19958;-71
2022/06/12 02:54:01;;;;;;;;;;;20.60;99.90;;;;;;5072123;28;19926;-73
2022/06/12 02:56:29;;;;;;;;;;;20.70;99.90;;;;;;5073312;28;19917;-72
2022/06/12 02:59:02;;;;;;;;;;;20.70;99.90;;;;;;5073407;28;19920;-71
2022/06/12 03:01:34;;;;;;;;;;;20.70;99.90;;;;;;5073221;28;19956;-72
2022/06/12 03:04:06;;;;;;;;;;;20.70;99.90;;;;;;5073162;28;19917;-71
2022/06/12 03:06:34;;;;;;;;;;;20.70;99.90;;;;;;5073164;28;19919;-70
2022/06/12 03:09:00;;;;;;;;;;;20.70;99.90;;;;;;5071894;28;19913;-71
2022/06/12 03:11:35;;;;;;;;;;;20.80;99.90;;;;;;5073087;28;19936;-69
2022/06/12 03:14:01;;;;;;;;;;;20.80;99.90;;;;;;5071612;28;19944;-71
2022/06/12 03:16:28;;;;;;;;;;;20.70;99.90;;;;;;5073123;28;19958;-73
2022/06/12 03:18:56;;;;;;;;;;;20.70;99.90;;;;;;5073101;28;19923;-72
2022/06/12 03:21:35;;;;;;;;;;;20.70;99.90;;;;;;5072973;28;20372;-71
2022/06/12 03:24:19;;;;;;;;;;;20.70;99.90;;;;;;5071766;28;19923;-70
2022/06/12 03:26:50;;;;;;;;;;;20.70;99.90;;;;;;5071542;28;19963;-71
2022/06/12 03:29:22;;;;;;;;;;;20.80;99.90;;;;;;5072173;28;19931;-70
2022/06/12 03:31:55;;;;;;;;;;;20.80;99.90;;;;;;5072763;28;19939;-71
2022/06/12 03:34:21;;;;;;;;;;;20.80;99.90;;;;;;5072675;28;19913;-70
2022/06/12 03:36:58;;;;;;;;;;;20.80;99.90;;;;;;5072679;28;19999;-70
2022/06/12 03:39:44;;;;;;;;;;;20.70;99.90;;;;;;5072749;28;20007;-70
2022/06/12 03:42:10;;;;;;;;;;;20.80;99.90;;;;;;5071830;28;20335;-70
2022/06/12 03:44:39;;;;;;;;;;;20.80;99.90;;;;;;5072911;28;20011;-70
2022/06/12 03:47:10;;;;;;;;;;;20.80;99.90;;;;;;5072567;28;19912;-70
2022/06/12 03:49:45;;;;;;;;;;;20.90;99.90;;;;;;5072855;28;19944;-70
2022/06/12 03:52:14;;;;;;;;;;;21.00;99.90;;;;;;5072497;28;19912;-71
2022/06/12 03:54:53;;;;;;;;;;;21.00;99.90;;;;;;5072636;28;19920;-71
2022/06/12 04:00:05;;;;;;;;;;;21.10;99.90;;;;;;5072505;28;20264;-70
2022/06/12 04:02:32;;;;;;;;;;;21.10;99.90;;;;;;5070690;28;19912;-70
2022/06/12 04:04:58;;;;;;;;;;;21.10;99.90;;;;;;5072310;28;19927;-71
2022/06/12 04:07:25;;;;;;;;;;;21.20;99.90;;;;;;5071971;28;20348;-70
2022/06/12 04:09:52;;;;;;;;;;;21.20;99.90;;;;;;5072144;28;19919;-71
2022/06/12 04:12:21;;;;;;;;;;;21.20;99.90;;;;;;5070468;28;19913;-71
2022/06/12 04:15:06;;;;;;;;;;;21.20;99.90;;;;;;5070726;28;19912;-70
2022/06/12 04:17:33;;;;;;;;;;;21.20;99.90;;;;;;5071287;28;20000;-71
2022/06/12 04:20:04;;;;;;;;;;;21.20;99.90;;;;;;5070650;28;19917;-71
2022/06/12 04:22:36;;;;;;;;;;;21.30;99.90;;;;;;5070409;28;19916;-72
2022/06/12 04:25:06;;;;;;;;;;;21.30;99.90;;;;;;5070498;28;19920;-70
2022/06/12 04:27:37;;;;;;;;;;;21.40;99.90;;;;;;5071643;28;20003;-71
2022/06/12 04:30:21;;;;;;;;;;;21.30;99.90;;;;;;5070124;28;19928;-70
2022/06/12 04:32:47;;;;;;;;;;;21.30;99.90;;;;;;5071509;28;19942;-72
2022/06/12 04:35:12;;;;;;;;;;;21.40;99.90;;;;;;5070503;28;20059;-71
2022/06/12 04:37:38;;;;;;;;;;;21.40;99.90;;;;;;5070275;28;19916;-71
2022/06/12 04:40:05;;;;;;;;;;;21.40;99.90;;;;;;5071265;28;19948;-72
2022/06/12 04:42:31;;;;;;;;;;;21.50;99.90;;;;;;5071661;28;19912;-72
2022/06/12 04:45:00;;;;;;;;;;;21.50;99.90;;;;;;5070216;28;19920;-71
2022/06/12 04:47:27;;;;;;;;;;;21.50;99.90;;;;;;5071483;28;19949;-72
2022/06/12 04:49:53;;;;;;;;;;;21.50;99.90;;;;;;5071862;28;19924;-72
2022/06/12 04:52:21;;;;;;;;;;;21.50;99.90;;;;;;5071487;28;20319;-71
2022/06/12 04:54:47;;;;;;;;;;;21.60;99.90;;;;;;5071364;28;19985;-71
2022/06/12 04:57:13;;;;;;;;;;;21.60;99.90;;;;;;5071413;28;20360;-72
2022/06/12 04:59:38;;;;;;;;;;;21.60;99.90;;;;;;5071516;28;20276;-72
2022/06/12 05:02:04;;;;;;;;;;;21.70;99.90;;;;;;5070107;28;19913;-71
2022/06/12 05:04:30;;;;;;;;;;;21.80;99.90;;;;;;5071530;28;19920;-72
2022/06/12 05:06:56;;;;;;;;;;;21.90;99.90;;;;;;5071334;28;19995;-71
2022/06/12 05:09:23;;;;;;;;;;;21.90;99.90;;;;;;5071405;28;20036;-70
2022/06/12 05:11:49;;;;;;;;;;;21.80;99.90;;;;;;5071561;28;19970;-69
2022/06/12 05:14:14;;;;;;;;;;;21.80;99.90;;;;;;5071228;28;20363;-70
2022/06/12 05:16:46;;;;;;;;;;;21.90;99.90;;;;;;5071398;28;19916;-69
2022/06/12 05:19:13;;;;;;;;;;;22.00;99.90;;;;;;5071453;28;20014;-70
2022/06/12 05:21:39;;;;;;;;;;;22.00;99.90;;;;;;5071452;28;20334;-70
2022/06/12 05:24:05;;;;;;;;;;;22.00;99.90;;;;;;5071163;28;20012;-70
2022/06/12 05:26:33;;;;;;;;;;;22.00;99.90;;;;;;5071276;28;19908;-70
2022/06/12 05:29:03;;;;;;;;;;;22.00;99.90;;;;;;5071063;28;19934;-70
2022/06/12 05:31:28;;;;;;;;;;;22.00;99.90;;;;;;5071459;28;19948;-69
2022/06/12 05:33:54;;;;;;;;;;;22.10;99.90;;;;;;5070871;28;19982;-72
2022/06/12 05:36:19;;;;;;;;;;;22.10;99.90;;;;;;5071045;28;20393;-71
2022/06/12 05:38:46;;;;;;;;;;;22.10;99.90;;;;;;5069559;28;19916;-71
2022/06/12 05:41:11;;;;;;;;;;;22.20;99.90;;;;;;5071158;28;20284;-70
2022/06/12 05:43:40;;;;;;;;;;;22.30;99.90;;;;;;5070982;28;19908;-70
2022/06/12 05:46:09;;;;;;;;;;;22.40;99.90;;;;;;5071165;28;19912;-70
2022/06/12 05:48:35;;;;;;;;;;;22.40;99.90;;;;;;5070907;28;19912;-70
2022/06/12 05:51:01;;;;;;;;;;;22.50;99.90;;;;;;5070767;28;19954;-70
2022/06/12 05:53:28;;;;;;;;;;;22.60;99.90;;;;;;5074047;28;19912;-70
2022/06/12 05:55:54;;;;;;;;;;;22.60;99.90;;;;;;5074554;28;19913;-68
2022/06/12 05:58:20;;;;;;;;;;;22.60;99.90;;;;;;5074410;28;19963;-67
2022/06/12 06:00:46;;;;;;;;;;;22.70;99.90;;;;;;5074306;28;19932;-67
2022/06/12 06:03:12;;;;;;;;;;;22.80;99.90;;;;;;5074310;28;19909;-67
2022/06/12 06:05:38;;;;;;;;;;;22.90;99.90;;;;;;5074679;28;19921;-67
2022/06/12 06:08:04;;;;;;;;;;;22.90;99.90;;;;;;5074400;28;19912;-68
2022/06/12 06:10:30;;;;;;;;;;;22.90;99.90;;;;;;5074558;28;19925;-67
2022/06/12 06:12:55;;;;;;;;;;;23.00;99.90;;;;;;5074172;28;20348;-69
2022/06/12 06:15:21;;;;;;;;;;;23.00;99.90;;;;;;5074428;28;19924;-70
2022/06/12 06:17:47;;;;;;;;;;;23.20;99.90;;;;;;5073888;28;20284;-69
2022/06/12 06:20:15;;;;;;;;;;;23.30;99.90;;;;;;5074401;28;19916;-67
2022/06/12 06:22:40;;;;;;;;;;;23.40;99.90;;;;;;5074046;28;19935;-67
2022/06/12 06:25:06;;;;;;;;;;;23.40;99.90;;;;;;5074364;28;20375;-68
2022/06/12 06:27:31;;;;;;;;;;;23.50;99.90;;;;;;5073666;28;19908;-68
2022/06/12 06:29:57;;;;;;;;;;;23.50;99.90;;;;;;5073967;28;19929;-67
2022/06/12 06:32:22;;;;;;;;;;;23.60;99.90;;;;;;5074013;28;19932;-67
2022/06/12 06:34:48;;;;;;;;;;;23.60;99.90;;;;;;5072252;28;19924;-67
2022/06/12 06:37:13;;;;;;;;;;;23.60;99.90;;;;;;5073752;28;20280;-67
2022/06/12 06:39:40;;;;;;;;;;;23.80;99.90;;;;;;5073707;28;19917;-67
2022/06/12 06:42:06;;;;;;;;;;;23.90;99.90;;;;;;5073921;28;19915;-67
2022/06/12 06:47:16;;;;;;;;;;;24.00;99.90;;;;;;5073534;28;20282;-67
2022/06/12 06:49:41;;;;;;;;;;;24.10;99.90;;;;;;5073559;28;19921;-67
2022/06/12 06:52:07;;;;;;;;;;;24.10;99.90;;;;;;5073155;28;19912;-67
2022/06/12 06:54:32;;;;;;;;;;;24.20;99.90;;;;;;5073628;28;19916;-67
2022/06/12 06:56:58;;;;;;;;;;;24.30;99.90;;;;;;5073358;28;20304;-68
2022/06/12 06:59:23;;;;;;;;;;;24.30;99.90;;;;;;5072079;28;19928;-67
2022/06/12 07:01:49;;;;;;;;;;;24.40;99.90;;;;;;5073544;28;19913;-67
2022/06/12 07:04:15;;;;;;;;;;;24.50;99.90;;;;;;5070607;28;20030;-67
2022/06/12 07:06:41;;;;;;;;;;;24.60;99.90;;;;;;5072522;28;20383;-67
2022/06/12 07:09:07;;;;;;;;;;;24.60;99.90;;;;;;5072843;28;19916;-67
2022/06/12 07:11:33;;;;;;;;;;;24.70;99.90;;;;;;5054474;28;20284;-68
2022/06/12 07:13:58;;;;;;;;;;;24.80;99.90;;;;;;5072564;28;19920;-67
2022/06/12 07:16:25;;;;;;;;;;;24.90;99.90;;;;;;5072437;28;19913;-67
2022/06/12 07:18:50;;;;;;;;;;;24.90;99.90;;;;;;5072427;28;20272;-67
2022/06/12 07:21:16;;;;;;;;;;;25.00;99.90;;;;;;5072302;28;19909;-67
2022/06/12 07:23:42;;;;;;;;;;;25.10;99.90;;;;;;5072277;28;19924;-67
2022/06/12 07:26:09;;;;;;;;;;;25.20;99.90;;;;;;5072387;28;19993;-67
2022/06/12 07:28:36;;;;;;;;;;;25.30;99.90;;;;;;5072157;28;20556;-67
2022/06/12 07:31:02;;;;;;;;;;;25.30;99.90;;;;;;5072412;28;19985;-69
2022/06/12 07:33:28;;;;;;;;;;;25.50;99.90;;;;;;5072445;28;19908;-69
2022/06/12 07:35:53;;;;;;;;;;;25.60;99.90;;;;;;5072558;28;20379;-69
2022/06/12 07:38:21;;;;;;;;;;;25.80;99.90;;;;;;5072656;28;19908;-67
2022/06/12 07:40:49;;;;;;;;;;;26.00;99.90;;;;;;5072591;28;19917;-67
2022/06/12 07:43:15;;;;;;;;;;;26.00;99.90;;;;;;5072312;28;19915;-66
2022/06/12 07:45:41;;;;;;;;;;;26.10;99.90;;;;;;5072621;28;19921;-66
2022/06/12 07:48:07;;;;;;;;;;;26.10;99.90;;;;;;5072166;28;19912;-65
2022/06/12 07:50:33;;;;;;;;;;;26.10;99.90;;;;;;5072010;28;19922;-68
2022/06/12 07:52:58;;;;;;;;;;;26.20;99.90;;;;;;5070770;28;19916;-67
2022/06/12 07:55:24;;;;;;;;;;;26.30;99.90;;;;;;5071928;28;19992;-65
2022/06/12 07:57:50;;;;;;;;;;;26.40;99.90;;;;;;5071973;28;19913;-65
2022/06/12 08:00:16;;;;;;;;;;;26.60;99.90;;;;;;5072228;28;19913;-68
2022/06/12 08:02:43;;;;;;;;;;;26.60;99.90;;;;;;5071994;28;20047;-68
2022/06/12 08:05:09;;;;;;;;;;;26.70;99.90;;;;;;5072021;28;19917;-68
2022/06/12 08:07:34;;;;;;;;;;;26.70;99.90;;;;;;5071790;28;19917;-68
2022/06/12 08:10:01;;;;;;;;;;;27.00;99.90;;;;;;5072369;28;19920;-68
2022/06/12 08:12:26;;;;;;;;;;;27.20;99.90;;;;;;5070498;28;19918;-67
2022/06/12 08:14:54;;;;;;;;;;;27.50;99.90;;;;;;5070366;28;19916;-68
2022/06/12 08:17:19;;;;;;;;;;;27.60;99.90;;;;;;5071984;28;19919;-68
2022/06/12 08:22:29;;;;;;;;;;;27.80;99.90;;;;;;5071900;28;19919;-68
2022/06/12 08:24:54;;;;;;;;;;;27.90;99.90;;;;;;5071792;28;19916;-67
2022/06/12 08:27:20;;;;;;;;;;;28.10;99.90;;;;;;5071301;28;20291;-66
2022/06/12 08:29:45;;;;;;;;;;;28.20;99.90;;;;;;5071704;28;19966;-64
2022/06/12 08:32:13;;;;;;;;;;;28.30;99.90;;;;;;5071479;28;19995;-67
2022/06/12 08:34:41;;;;;;;;;;;28.40;99.90;;;;;;5071242;28;20317;-68
2022/06/12 08:37:12;;;;;;;;;;;28.50;99.90;;;;;;5071649;28;19908;-68
2022/06/12 08:39:38;;;;;;;;;;;28.60;99.90;;;;;;5071773;28;19917;-68
2022/06/12 08:42:32;;;;;;;;;;;28.80;99.90;;;;;;5071425;28;19913;-67
2022/06/12 08:45:01;;;;;;;;;;;29.00;99.90;;;;;;5057093;28;19920;-68
2022/06/12 08:47:37;;;;;;;;;;;29.20;99.90;;;;;;5070011;28;19947;-67
2022/06/12 08:50:13;;;;;;;;;;;29.30;99.90;;;;;;5070222;28;19928;-67
2022/06/12 08:52:49;;;;;;;;;;;29.40;99.90;;;;;;5071373;28;19951;-68
2022/06/12 08:55:32;;;;;;;;;;;29.50;99.90;;;;;;5071622;28;20356;-67
2022/06/12 08:58:04;;;;;;;;;;;29.60;99.90;;;;;;5071107;28;19991;-71
2022/06/12 09:00:32;;;;;;;;;;;29.90;99.90;;;;;;5071603;28;19920;-69
2022/06/12 09:02:57;;;;;;;;;;;30.00;99.90;;;;;;5071068;28;19999;-68
2022/06/12 09:05:27;;;;;;;;;;;30.00;99.90;;;;;;5071567;28;20320;-69
2022/06/12 09:07:58;;;;;;;;;;;30.10;99.90;;;;;;5071221;28;19948;-69
2022/06/12 09:10:42;;;;;;;;;;;30.10;99.90;;;;;;5071672;28;20058;-69
2022/06/12 09:13:11;;;;;;;;;;;30.10;99.90;;;;;;5070941;28;20319;-68
2022/06/12 09:15:41;;;;;;;;;;;30.20;99.90;;;;;;5070914;28;19921;-69
2022/06/12 09:18:22;;;;;;;;;;;30.20;99.90;;;;;;5071305;28;20382;-68
2022/06/12 09:21:01;;;;;;;;;;;30.10;99.90;;;;;;5071367;28;19940;-68
2022/06/12 09:23:26;;;;;;;;;;;30.10;99.90;;;;;;5071031;28;20291;-68
2022/06/12 09:26:09;;;;;;;;;;;30.20;99.90;;;;;;5070840;28;19912;-69
2022/06/12 09:28:54;;;;;;;;;;;30.30;99.90;;;;;;5074415;28;20037;-68
2022/06/12 09:31:19;;;;;;;;;;;30.50;99.60;;;;;;5075002;28;19912;-68
2022/06/12 09:33:51;;;;;;;;;;;30.70;99.30;;;;;;5074646;28;19942;-69
2022/06/12 09:36:19;;;;;;;;;;;30.90;99.10;;;;;;5074794;28;19916;-68
2022/06/12 09:38:53;;;;;;;;;;;31.00;98.20;;;;;;5074768;28;19913;-69
2022/06/12 09:41:45;;;;;;;;;;;31.20;98.20;;;;;;5074723;28;20009;-68
2022/06/12 09:44:13;;;;;;;;;;;31.30;98.20;;;;;;5058063;28;20317;-69
2022/06/12 09:46:58;;;;;;;;;;;31.40;96.90;;;;;;5074710;28;19920;-68
2022/06/12 09:49:32;;;;;;;;;;;31.30;96.70;;;;;;5074724;28;19920;-68
2022/06/12 09:52:16;;;;;;;;;;;31.40;96.00;;;;;;5073362;28;19935;-69
2022/06/12 09:55:00;;;;;;;;;;;31.50;94.40;;;;;;5074868;28;19917;-69
2022/06/12 09:57:32;;;;;;;;;;;31.50;93.70;;;;;;5073868;28;19913;-68
2022/06/12 10:00:00;;;;;;;;;;;31.50;93.80;;;;;;5074669;28;19921;-69
2022/06/12 10:02:42;;;;;;;;;;;31.60;93.80;;;;;;5074751;28;20012;-68
2022/06/12 10:05:20;;;;;;;;;;;31.80;94.00;;;;;;5074576;28;19920;-69
2022/06/12 10:07:52;;;;;;;;;;;32.00;92.80;;;;;;5072930;28;20011;-69
2022/06/12 10:10:22;;;;;;;;;;;31.90;92.00;;;;;;5074766;28;19927;-69
2022/06/12 10:12:51;;;;;;;;;;;32.00;91.60;;;;;;5074486;28;19912;-70
2022/06/12 10:15:22;;;;;;;;;;;32.10;90.60;;;;;;5074554;28;19913;-69
2022/06/12 10:17:57;;;;;;;;;;;32.10;88.30;;;;;;5074509;28;20353;-69
2022/06/12 10:20:29;;;;;;;;;;;32.30;87.20;;;;;;5074415;28;20361;-70
2022/06/12 10:22:55;;;;;;;;;;;32.50;86.20;;;;;;5074080;28;19958;-70
2022/06/12 10:25:27;;;;;;;;;;;32.80;83.00;;;;;;5074186;28;19974;-67
2022/06/12 10:27:59;;;;;;;;;;;33.10;82.60;;;;;;5073695;28;20450;-70
2022/06/12 10:30:36;;;;;;;;;;;32.80;83.60;;;;;;5074217;28;20139;-70
2022/06/12 10:33:08;;;;;;;;;;;32.50;83.50;;;;;;5074204;28;19909;-69
2022/06/12 10:35:44;;;;;;;;;;;32.40;82.70;;;;;;5074319;28;19924;-70
2022/06/12 10:38:10;;;;;;;;;;;32.50;81.80;;;;;;5072687;28;19913;-70
2022/06/12 10:40:35;;;;;;;;;;;32.70;81.70;;;;;;5073770;28;19923;-70
2022/06/12 10:43:02;;;;;;;;;;;32.60;81.70;;;;;;5073427;28;19908;-70
2022/06/12 10:45:29;;;;;;;;;;;32.60;81.10;;;;;;5073795;28;20069;-70
2022/06/12 10:47:57;;;;;;;;;;;32.70;80.20;;;;;;5073475;28;20003;-70
2022/06/12 10:50:31;;;;;;;;;;;32.70;78.60;;;;;;5073890;28;19921;-69
2022/06/12 10:53:00;;;;;;;;;;;32.80;77.60;;;;;;5072086;28;20388;-69
2022/06/12 10:55:34;;;;;;;;;;;32.90;78.40;;;;;;5073696;28;19916;-69
2022/06/12 10:58:06;;;;;;;;;;;32.90;78.60;;;;;;5073701;28;20355;-69
2022/06/12 11:00:35;;;;;;;;;;;32.80;78.00;;;;;;5073501;28;20423;-70
2022/06/12 11:03:17;;;;;;;;;;;32.70;76.10;;;;;;5073095;28;19959;-70
2022/06/12 11:05:52;;;;;;;;;;;32.60;74.20;;;;;;5073658;28;20011;-70
2022/06/12 11:08:25;;;;;;;;;;;32.60;72.70;;;;;;5073418;28;20002;-71
2022/06/12 11:10:56;;;;;;;;;;;32.70;72.90;;;;;;5073552;28;19917;-72
2022/06/12 11:13:38;;;;;;;;;;;32.90;74.30;;;;;;5073146;28;19916;-71
2022/06/12 11:16:10;;;;;;;;;;;33.10;75.50;;;;;;5072995;28;19908;-69
2022/06/12 11:18:39;;;;;;;;;;;33.30;71.80;;;;;;5073371;28;19908;-72
2022/06/12 11:21:04;;;;;;;;;;;33.50;71.60;;;;;;5073110;28;19912;-71
2022/06/12 11:23:33;;;;;;;;;;;33.50;72.30;;;;;;5072993;28;19984;-72
2022/06/12 11:26:04;;;;;;;;;;;33.40;72.30;;;;;;5072661;28;19959;-69
2022/06/12 11:28:45;;;;;;;;;;;33.10;72.90;;;;;;5072603;28;19924;-69
2022/06/12 11:31:10;;;;;;;;;;;32.70;75.00;;;;;;5071255;28;19968;-70
2022/06/12 11:33:51;;;;;;;;;;;32.60;74.80;;;;;;5072567;28;19909;-69
2022/06/12 11:36:25;;;;;;;;;;;32.50;74.60;;;;;;5072494;28;19959;-70
2022/06/12 11:38:56;;;;;;;;;;;32.50;74.90;;;;;;5072675;28;19924;-69
2022/06/12 11:41:41;;;;;;;;;;;32.40;74.80;;;;;;5072541;28;19912;-70
2022/06/12 11:44:29;;;;;;;;;;;32.40;74.70;;;;;;5072407;28;19924;-69
2022/06/12 11:47:02;;;;;;;;;;;32.40;75.90;;;;;;5066336;28;19913;-70
2022/06/12 11:49:34;;;;;;;;;;;32.20;76.60;;;;;;5070414;28;19936;-70
2022/06/12 11:52:11;;;;;;;;;;;32.00;77.20;;;;;;5072310;28;19919;-69
2022/06/12 11:54:42;;;;;;;;;;;32.10;77.90;;;;;;5070662;28;19919;-71
2022/06/12 11:57:10;;;;;;;;;;;31.80;78.00;;;;;;5072329;28;19912;-69
2022/06/12 11:59:54;;;;;;;;;;;31.20;79.30;;;;;;5072191;28;19990;-70
2022/06/12 12:02:20;;;;;;;;;;;30.80;80.80;;;;;;5072091;28;19916;-70
2022/06/12 12:05:09;;;;;;;;;;;30.60;82.20;;;;;;5071889;28;19922;-69
2022/06/12 12:07:43;;;;;;;;;;;30.60;82.20;;;;;;5066228;28;19916;-69
2022/06/12 12:10:25;;;;;;;;;;;30.60;82.20;;;;;;5071818;28;19920;-70
2022/06/12 12:12:54;;;;;;;;;;;30.70;82.40;;;;;;5071866;28;19951;-70
2022/06/12 12:15:23;;;;;;;;;;;30.90;82.60;;;;;;5072287;28;19982;-69
2022/06/12 12:17:50;;;;;;;;;;;31.00;82.40;;;;;;5071845;28;19919;-69
2022/06/12 12:20:20;;;;;;;;;;;30.90;82.00;;;;;;5072093;28;20028;-69
2022/06/12 12:22:48;;;;;;;;;;;30.80;81.70;;;;;;5072005;28;19923;-69
2022/06/12 12:25:13;;;;;;;;;;;30.50;83.00;;;;;;5071976;28;19959;-69
2022/06/12 12:27:40;;;;;;;;;;;30.30;82.90;;;;;;5071489;28;19978;-69
2022/06/12 12:30:13;;;;;;;;;;;30.00;83.20;;;;;;5071810;28;19944;-69
2022/06/12 12:32:39;;;;;;;;;;;29.70;84.10;;;;;;5071722;28;20388;-69
2022/06/12 12:35:05;;;;;;;;;;;29.50;84.60;;;;;;5071869;28;19920;-70
2022/06/12 12:43:18;;;;;;;;;;;29.80;84.50;;;;;;5071662;28;19966;-70
2022/06/12 12:45:44;;;;;;;;;;;29.90;83.90;;;;;;5071765;28;19960;-70
2022/06/12 12:48:11;;;;;;;;;;;30.00;83.60;;;;;;5071388;28;19958;-69
2022/06/12 12:50:49;;;;;;;;;;;30.10;83.80;;;;;;5071670;28;20328;-70
2022/06/12 12:53:31;;;;;;;;;;;30.10;83.10;;;;;;5071395;28;20082;-69
2022/06/12 12:56:16;;;;;;;;;;;30.20;83.50;;;;;;5071319;28;19921;-70
2022/06/12 12:58:56;;;;;;;;;;;30.10;83.50;;;;;;5071018;28;19924;-70
2022/06/12 13:01:23;;;;;;;;;;;29.90;83.30;;;;;;5070796;28;20351;-70
2022/06/12 13:04:02;;;;;;;;;;;29.80;83.40;;;;;;5069836;28;19923;-69
2022/06/12 13:06:28;;;;;;;;;;;29.70;83.90;;;;;;5071207;28;20380;-70
2022/06/12 13:09:02;;;;;;;;;;;29.60;84.00;;;;;;5071398;28;19963;-70
2022/06/12 13:11:35;;;;;;;;;;;29.40;83.90;;;;;;5071475;28;19908;-70
2022/06/12 13:14:20;;;;;;;;;;;29.40;83.40;;;;;;5071381;28;20315;-70
2022/06/12 13:16:51;;;;;;;;;;;29.40;84.10;;;;;;5071056;28;20017;-70
2022/06/12 13:19:16;;;;;;;;;;;29.30;84.30;;;;;;5069934;28;19916;-69
2022/06/12 13:21:58;;;;;;;;;;;29.30;84.20;;;;;;5071170;28;19931;-70
2022/06/12 13:24:28;;;;;;;;;;;29.20;84.20;;;;;;5071059;28;19966;-71
2022/06/12 13:26:54;;;;;;;;;;;29.20;84.50;;;;;;5070915;28;19912;-71
2022/06/12 13:29:21;;;;;;;;;;;29.10;85.10;;;;;;5071071;28;20376;-71
2022/06/12 13:31:57;;;;;;;;;;;29.10;84.00;;;;;;5070878;28;19909;-71
2022/06/12 13:34:24;;;;;;;;;;;29.10;84.10;;;;;;5071169;28;20117;-71
2022/06/12 13:36:50;;;;;;;;;;;29.20;85.30;;;;;;5070966;28;19912;-70
2022/06/12 13:39:27;;;;;;;;;;;29.20;84.50;;;;;;5071315;28;20509;-71
2022/06/12 13:41:55;;;;;;;;;;;29.20;84.40;;;;;;5070826;28;19915;-71
2022/06/12 13:44:20;;;;;;;;;;;29.10;84.60;;;;;;5071027;28;19924;-71
2022/06/12 13:46:46;;;;;;;;;;;29.10;85.00;;;;;;5070997;28;20033;-71
2022/06/12 13:49:19;;;;;;;;;;;29.00;84.80;;;;;;5071026;28;19920;-71
2022/06/12 13:51:49;;;;;;;;;;;28.90;85.10;;;;;;5070640;28;19973;-71
2022/06/12 13:54:19;;;;;;;;;;;28.90;86.00;;;;;;5071019;28;20364;-70
2022/06/12 13:56:59;;;;;;;;;;;28.90;83.60;;;;;;5070807;28;19943;-71
2022/06/12 13:59:26;;;;;;;;;;;28.80;84.60;;;;;;5069491;28;19959;-70
2022/06/12 14:01:52;;;;;;;;;;;28.80;84.90;;;;;;5070720;28;19920;-70
2022/06/12 14:04:25;;;;;;;;;;;28.80;84.80;;;;;;5070879;28;19920;-70
2022/06/12 14:06:51;;;;;;;;;;;28.70;85.10;;;;;;5071191;28;19930;-70
2022/06/12 14:09:18;;;;;;;;;;;28.60;85.50;;;;;;5071309;28;20376;-69
2022/06/12 14:11:45;;;;;;;;;;;28.40;85.70;;;;;;5071054;28;20364;-70
2022/06/12 14:14:27;;;;;;;;;;;28.40;85.70;;;;;;5073731;28;19920;-69
2022/06/12 14:16:54;;;;;;;;;;;28.30;86.10;;;;;;5074252;28;19912;-69
2022/06/12 14:19:27;;;;;;;;;;;27.90;87.50;;;;;;5074360;28;20299;-69
2022/06/12 14:22:01;;;;;;;;;;;27.70;88.60;;;;;;5073925;28;20231;-69
2022/06/12 14:24:28;;;;;;;;;;;27.40;89.60;;;;;;5073958;28;19956;-69
2022/06/12 14:26:54;;;;;;;;;;;27.30;90.20;;;;;;5074085;28;19912;-69
2022/06/12 14:29:38;;;;;;;;;;;27.10;90.60;;;;;;5073938;28;19925;-69
2022/06/12 14:32:04;;;;;;;;;;;26.80;91.30;;;;;;5073817;28;19958;-69
2022/06/12 14:34:30;;;;;;;;;;;26.40;92.10;;;;;;5072531;28;20006;-69
2022/06/12 14:36:56;;;;;;;;;;;26.30;92.50;;;;;;5072638;28;19915;-70
2022/06/12 14:39:22;;;;;;;;;;;26.30;92.70;;;;;;5072610;28;19916;-70
2022/06/12 14:41:52;;;;;;;;;;;26.30;92.70;;;;;;5073921;28;20424;-70
2022/06/12 14:44:18;;;;;;;;;;;26.40;92.80;;;;;;5073961;28;19921;-70
2022/06/12 14:46:43;;;;;;;;;;;26.50;92.50;;;;;;5074225;28;19917;-70
2022/06/12 14:49:16;;;;;;;;;;;26.60;92.30;;;;;;5073434;28;19923;-70
2022/06/12 14:51:42;;;;;;;;;;;26.50;92.80;;;;;;5074003;28;19912;-69